sensor_id;sensor_type;location;lat;lon;timestamp;P1;durP1;ratioP1;P2;durP2;ratioP2
67053;SDS011;53960;51.826;5.850;2023-04-24T00:00:49;17.97;;;8.03;;
67053;SDS011;53960;51.826;5.850;2023-04-24T00:03:15;17.00;;;9.55;;
67053;SDS011;53960;51.826;5.850;2023-04-24T00:05:41;16.77;;;9.23;;
67053;SDS011;53960;51.826;5.850;2023-04-24T00:08:07;15.63;;;9.03;;
67053;SDS011;53960;51.826;5.850;2023-04-24T00:10:32;15.87;;;9.10;;
67053;SDS011;53960;51.826;5.850;2023-04-24T00:12:58;14.20;;;7.82;;
67053;SDS011;53960;51.826;5.850;2023-04-24T00:15:23;14.70;;;7.67;;
67053;SDS011;53960;51.826;5.850;2023-04-24T00:17:49;15.53;;;7.93;;
67053;SDS011;53960;51.826;5.850;2023-04-24T00:20:14;15.37;;;8.10;;
67053;SDS011;53960;51.826;5.850;2023-04-24T00:22:39;15.93;;;7.83;;
67053;SDS011;53960;51.826;5.850;2023-04-24T00:25:05;15.18;;;8.32;;
67053;SDS011;53960;51.826;5.850;2023-04-24T00:27:31;15.93;;;9.37;;
67053;SDS011;53960;51.826;5.850;2023-04-24T00:29:56;13.93;;;7.63;;
67053;SDS011;53960;51.826;5.850;2023-04-24T00:32:21;16.17;;;7.73;;
67053;SDS011;53960;51.826;5.850;2023-04-24T00:34:47;14.20;;;7.20;;
67053;SDS011;53960;51.826;5.850;2023-04-24T00:37:12;15.80;;;7.37;;
67053;SDS011;53960;51.826;5.850;2023-04-24T00:39:37;14.27;;;8.00;;
67053;SDS011;53960;51.826;5.850;2023-04-24T00:42:03;13.90;;;7.90;;
67053;SDS011;53960;51.826;5.850;2023-04-24T00:44:30;14.80;;;7.97;;
67053;SDS011;53960;51.826;5.850;2023-04-24T00:46:56;15.10;;;7.78;;
67053;SDS011;53960;51.826;5.850;2023-04-24T00:49:22;16.23;;;7.73;;
67053;SDS011;53960;51.826;5.850;2023-04-24T00:51:47;14.93;;;8.10;;
67053;SDS011;53960;51.826;5.850;2023-04-24T00:54:14;13.55;;;7.32;;
67053;SDS011;53960;51.826;5.850;2023-04-24T00:56:40;13.20;;;7.00;;
67053;SDS011;53960;51.826;5.850;2023-04-24T00:59:06;12.95;;;6.93;;
67053;SDS011;53960;51.826;5.850;2023-04-24T01:01:32;14.07;;;6.57;;
67053;SDS011;53960;51.826;5.850;2023-04-24T01:03:58;14.20;;;6.72;;
67053;SDS011;53960;51.826;5.850;2023-04-24T01:06:26;12.40;;;7.18;;
67053;SDS011;53960;51.826;5.850;2023-04-24T01:08:52;13.10;;;7.18;;
67053;SDS011;53960;51.826;5.850;2023-04-24T01:11:18;14.07;;;7.60;;
67053;SDS011;53960;51.826;5.850;2023-04-24T01:13:44;13.45;;;6.88;;
67053;SDS011;53960;51.826;5.850;2023-04-24T01:16:10;14.07;;;8.03;;
67053;SDS011;53960;51.826;5.850;2023-04-24T01:18:35;14.68;;;8.23;;
67053;SDS011;53960;51.826;5.850;2023-04-24T01:21:03;15.03;;;8.90;;
67053;SDS011;53960;51.826;5.850;2023-04-24T01:23:29;14.50;;;7.72;;
67053;SDS011;53960;51.826;5.850;2023-04-24T01:25:55;14.67;;;8.20;;
67053;SDS011;53960;51.826;5.850;2023-04-24T01:28:20;16.50;;;8.07;;
67053;SDS011;53960;51.826;5.850;2023-04-24T01:30:46;15.73;;;8.07;;
67053;SDS011;53960;51.826;5.850;2023-04-24T01:33:11;15.23;;;8.27;;
67053;SDS011;53960;51.826;5.850;2023-04-24T01:35:37;14.85;;;8.70;;
67053;SDS011;53960;51.826;5.850;2023-04-24T01:38:03;14.53;;;8.33;;
67053;SDS011;53960;51.826;5.850;2023-04-24T01:40:28;15.23;;;7.85;;
67053;SDS011;53960;51.826;5.850;2023-04-24T01:42:54;15.60;;;8.20;;
67053;SDS011;53960;51.826;5.850;2023-04-24T01:45:19;17.97;;;8.50;;
67053;SDS011;53960;51.826;5.850;2023-04-24T01:47:45;17.10;;;9.17;;
67053;SDS011;53960;51.826;5.850;2023-04-24T01:50:11;16.80;;;8.90;;
67053;SDS011;53960;51.826;5.850;2023-04-24T01:52:36;18.77;;;10.15;;
67053;SDS011;53960;51.826;5.850;2023-04-24T01:55:02;17.87;;;10.03;;
67053;SDS011;53960;51.826;5.850;2023-04-24T01:57:29;19.33;;;10.32;;
67053;SDS011;53960;51.826;5.850;2023-04-24T01:59:55;18.87;;;10.20;;
67053;SDS011;53960;51.826;5.850;2023-04-24T02:02:21;20.48;;;11.20;;
67053;SDS011;53960;51.826;5.850;2023-04-24T02:04:48;19.70;;;10.70;;
67053;SDS011;53960;51.826;5.850;2023-04-24T02:07:14;20.03;;;11.10;;
67053;SDS011;53960;51.826;5.850;2023-04-24T02:09:39;20.13;;;10.83;;
67053;SDS011;53960;51.826;5.850;2023-04-24T02:12:04;20.37;;;11.20;;
67053;SDS011;53960;51.826;5.850;2023-04-24T02:14:30;19.03;;;10.60;;
67053;SDS011;53960;51.826;5.850;2023-04-24T02:16:55;16.27;;;9.30;;
67053;SDS011;53960;51.826;5.850;2023-04-24T02:19:20;16.13;;;9.27;;
67053;SDS011;53960;51.826;5.850;2023-04-24T02:21:46;16.58;;;8.82;;
67053;SDS011;53960;51.826;5.850;2023-04-24T02:24:11;15.97;;;9.33;;
67053;SDS011;53960;51.826;5.850;2023-04-24T02:26:36;20.63;;;9.93;;
67053;SDS011;53960;51.826;5.850;2023-04-24T02:29:01;19.60;;;9.93;;
67053;SDS011;53960;51.826;5.850;2023-04-24T02:31:27;16.30;;;8.87;;
67053;SDS011;53960;51.826;5.850;2023-04-24T02:33:52;15.63;;;8.80;;
67053;SDS011;53960;51.826;5.850;2023-04-24T02:36:17;17.30;;;9.60;;
67053;SDS011;53960;51.826;5.850;2023-04-24T02:38:43;16.90;;;9.97;;
67053;SDS011;53960;51.826;5.850;2023-04-24T02:41:08;17.30;;;9.32;;
67053;SDS011;53960;51.826;5.850;2023-04-24T02:43:33;19.10;;;9.90;;
67053;SDS011;53960;51.826;5.850;2023-04-24T02:45:59;19.60;;;10.73;;
67053;SDS011;53960;51.826;5.850;2023-04-24T02:48:24;20.07;;;11.43;;
67053;SDS011;53960;51.826;5.850;2023-04-24T02:50:50;18.23;;;10.73;;
67053;SDS011;53960;51.826;5.850;2023-04-24T02:53:15;20.52;;;12.23;;
67053;SDS011;53960;51.826;5.850;2023-04-24T02:55:41;21.30;;;11.63;;
67053;SDS011;53960;51.826;5.850;2023-04-24T02:58:06;21.33;;;11.73;;
67053;SDS011;53960;51.826;5.850;2023-04-24T03:00:31;22.33;;;12.67;;
67053;SDS011;53960;51.826;5.850;2023-04-24T03:02:57;24.80;;;13.00;;
67053;SDS011;53960;51.826;5.850;2023-04-24T03:05:22;25.25;;;13.80;;
67053;SDS011;53960;51.826;5.850;2023-04-24T03:07:47;25.33;;;14.50;;
67053;SDS011;53960;51.826;5.850;2023-04-24T03:10:13;29.60;;;15.33;;
67053;SDS011;53960;51.826;5.850;2023-04-24T03:12:38;28.93;;;16.73;;
67053;SDS011;53960;51.826;5.850;2023-04-24T03:15:04;26.37;;;15.33;;
67053;SDS011;53960;51.826;5.850;2023-04-24T03:17:30;27.80;;;16.77;;
67053;SDS011;53960;51.826;5.850;2023-04-24T03:19:55;28.50;;;15.37;;
67053;SDS011;53960;51.826;5.850;2023-04-24T03:22:20;27.95;;;16.05;;
67053;SDS011;53960;51.826;5.850;2023-04-24T03:24:46;27.40;;;15.33;;
67053;SDS011;53960;51.826;5.850;2023-04-24T03:27:11;26.37;;;15.17;;
67053;SDS011;53960;51.826;5.850;2023-04-24T03:29:36;29.90;;;15.73;;
67053;SDS011;53960;51.826;5.850;2023-04-24T03:32:02;26.97;;;15.63;;
67053;SDS011;53960;51.826;5.850;2023-04-24T03:34:27;25.80;;;15.23;;
67053;SDS011;53960;51.826;5.850;2023-04-24T03:36:53;29.55;;;16.35;;
67053;SDS011;53960;51.826;5.850;2023-04-24T03:39:18;27.83;;;16.00;;
67053;SDS011;53960;51.826;5.850;2023-04-24T03:41:43;26.60;;;15.00;;
67053;SDS011;53960;51.826;5.850;2023-04-24T03:44:09;28.73;;;15.23;;
67053;SDS011;53960;51.826;5.850;2023-04-24T03:46:34;28.30;;;15.03;;
67053;SDS011;53960;51.826;5.850;2023-04-24T03:49:00;27.08;;;14.70;;
67053;SDS011;53960;51.826;5.850;2023-04-24T03:51:25;27.07;;;15.10;;
67053;SDS011;53960;51.826;5.850;2023-04-24T03:53:52;27.70;;;14.70;;
67053;SDS011;53960;51.826;5.850;2023-04-24T03:56:18;28.37;;;14.90;;
67053;SDS011;53960;51.826;5.850;2023-04-24T03:58:43;29.03;;;15.17;;
67053;SDS011;53960;51.826;5.850;2023-04-24T04:01:08;26.60;;;14.13;;
67053;SDS011;53960;51.826;5.850;2023-04-24T04:03:33;27.73;;;14.80;;
67053;SDS011;53960;51.826;5.850;2023-04-24T04:05:59;25.87;;;13.80;;
67053;SDS011;53960;51.826;5.850;2023-04-24T04:08:24;27.77;;;14.27;;
67053;SDS011;53960;51.826;5.850;2023-04-24T04:10:49;26.40;;;13.90;;
67053;SDS011;53960;51.826;5.850;2023-04-24T04:13:15;26.30;;;13.47;;
67053;SDS011;53960;51.826;5.850;2023-04-24T04:15:40;25.23;;;13.80;;
67053;SDS011;53960;51.826;5.850;2023-04-24T04:18:05;27.30;;;13.90;;
67053;SDS011;53960;51.826;5.850;2023-04-24T04:20:31;24.37;;;12.77;;
67053;SDS011;53960;51.826;5.850;2023-04-24T04:22:56;25.23;;;13.77;;
67053;SDS011;53960;51.826;5.850;2023-04-24T04:25:21;24.45;;;13.65;;
67053;SDS011;53960;51.826;5.850;2023-04-24T04:27:47;23.57;;;12.90;;
67053;SDS011;53960;51.826;5.850;2023-04-24T04:30:13;21.25;;;12.77;;
67053;SDS011;53960;51.826;5.850;2023-04-24T04:32:39;24.03;;;12.73;;
67053;SDS011;53960;51.826;5.850;2023-04-24T04:35:04;21.55;;;12.20;;
67053;SDS011;53960;51.826;5.850;2023-04-24T04:37:30;21.73;;;12.30;;
67053;SDS011;53960;51.826;5.850;2023-04-24T04:39:59;20.40;;;11.27;;
67053;SDS011;53960;51.826;5.850;2023-04-24T04:42:25;21.85;;;12.35;;
67053;SDS011;53960;51.826;5.850;2023-04-24T04:44:52;22.77;;;11.83;;
67053;SDS011;53960;51.826;5.850;2023-04-24T04:47:17;21.90;;;12.18;;
67053;SDS011;53960;51.826;5.850;2023-04-24T04:49:46;22.90;;;12.20;;
67053;SDS011;53960;51.826;5.850;2023-04-24T04:52:13;22.55;;;11.85;;
67053;SDS011;53960;51.826;5.850;2023-04-24T04:54:38;19.20;;;11.03;;
67053;SDS011;53960;51.826;5.850;2023-04-24T04:57:03;20.83;;;10.63;;
67053;SDS011;53960;51.826;5.850;2023-04-24T04:59:29;19.87;;;11.40;;
67053;SDS011;53960;51.826;5.850;2023-04-24T05:01:54;20.77;;;10.93;;
67053;SDS011;53960;51.826;5.850;2023-04-24T05:04:19;23.77;;;11.03;;
67053;SDS011;53960;51.826;5.850;2023-04-24T05:06:45;20.73;;;10.10;;
67053;SDS011;53960;51.826;5.850;2023-04-24T05:09:12;16.30;;;9.10;;
67053;SDS011;53960;51.826;5.850;2023-04-24T05:11:37;20.38;;;10.60;;
67053;SDS011;53960;51.826;5.850;2023-04-24T05:14:02;19.43;;;10.00;;
67053;SDS011;53960;51.826;5.850;2023-04-24T05:16:28;20.30;;;11.07;;
67053;SDS011;53960;51.826;5.850;2023-04-24T05:18:53;17.60;;;9.23;;
67053;SDS011;53960;51.826;5.850;2023-04-24T05:21:18;17.67;;;9.53;;
67053;SDS011;53960;51.826;5.850;2023-04-24T05:23:44;19.90;;;10.30;;
67053;SDS011;53960;51.826;5.850;2023-04-24T05:26:09;18.58;;;10.40;;
67053;SDS011;53960;51.826;5.850;2023-04-24T05:28:34;17.17;;;9.67;;
67053;SDS011;53960;51.826;5.850;2023-04-24T05:31:01;17.65;;;9.63;;
67053;SDS011;53960;51.826;5.850;2023-04-24T05:33:27;17.57;;;9.47;;
67053;SDS011;53960;51.826;5.850;2023-04-24T05:35:52;19.80;;;10.10;;
67053;SDS011;53960;51.826;5.850;2023-04-24T05:38:17;18.53;;;9.67;;
67053;SDS011;53960;51.826;5.850;2023-04-24T05:40:44;16.20;;;8.80;;
67053;SDS011;53960;51.826;5.850;2023-04-24T05:43:10;14.75;;;7.93;;
67053;SDS011;53960;51.826;5.850;2023-04-24T05:45:35;14.57;;;7.90;;
67053;SDS011;53960;51.826;5.850;2023-04-24T05:48:01;14.87;;;7.67;;
67053;SDS011;53960;51.826;5.850;2023-04-24T05:50:27;14.80;;;7.45;;
67053;SDS011;53960;51.826;5.850;2023-04-24T05:52:52;14.73;;;7.47;;
67053;SDS011;53960;51.826;5.850;2023-04-24T05:55:18;14.52;;;6.40;;
67053;SDS011;53960;51.826;5.850;2023-04-24T05:57:43;13.53;;;6.73;;
67053;SDS011;53960;51.826;5.850;2023-04-24T06:00:09;13.17;;;6.13;;
67053;SDS011;53960;51.826;5.850;2023-04-24T06:02:37;12.48;;;6.43;;
67053;SDS011;53960;51.826;5.850;2023-04-24T06:05:02;11.27;;;5.63;;
67053;SDS011;53960;51.826;5.850;2023-04-24T06:07:29;12.37;;;4.60;;
67053;SDS011;53960;51.826;5.850;2023-04-24T06:09:55;11.48;;;5.32;;
67053;SDS011;53960;51.826;5.850;2023-04-24T06:12:21;10.05;;;4.45;;
67053;SDS011;53960;51.826;5.850;2023-04-24T06:14:47;9.73;;;4.10;;
67053;SDS011;53960;51.826;5.850;2023-04-24T06:17:12;9.97;;;4.97;;
67053;SDS011;53960;51.826;5.850;2023-04-24T06:19:38;8.77;;;3.53;;
67053;SDS011;53960;51.826;5.850;2023-04-24T06:22:03;9.47;;;3.70;;
67053;SDS011;53960;51.826;5.850;2023-04-24T06:24:29;9.82;;;3.45;;
67053;SDS011;53960;51.826;5.850;2023-04-24T06:26:54;44.70;;;7.00;;
67053;SDS011;53960;51.826;5.850;2023-04-24T06:29:21;137.32;;;16.13;;
67053;SDS011;53960;51.826;5.850;2023-04-24T06:31:47;157.47;;;18.50;;
67053;SDS011;53960;51.826;5.850;2023-04-24T06:34:12;60.80;;;9.67;;
67053;SDS011;53960;51.826;5.850;2023-04-24T06:36:37;135.83;;;17.77;;
67053;SDS011;53960;51.826;5.850;2023-04-24T06:39:03;44.63;;;6.43;;
67053;SDS011;53960;51.826;5.850;2023-04-24T06:41:29;13.80;;;2.55;;
67053;SDS011;53960;51.826;5.850;2023-04-24T06:43:54;12.53;;;2.70;;
67053;SDS011;53960;51.826;5.850;2023-04-24T06:46:20;8.32;;;2.65;;
67053;SDS011;53960;51.826;5.850;2023-04-24T06:48:48;7.65;;;2.58;;
67053;SDS011;53960;51.826;5.850;2023-04-24T06:51:14;11.68;;;3.08;;
67053;SDS011;53960;51.826;5.850;2023-04-24T06:53:40;7.93;;;2.80;;
67053;SDS011;53960;51.826;5.850;2023-04-24T06:56:05;8.07;;;2.80;;
67053;SDS011;53960;51.826;5.850;2023-04-24T06:58:30;7.50;;;2.80;;
67053;SDS011;53960;51.826;5.850;2023-04-24T07:00:56;7.27;;;2.40;;
67053;SDS011;53960;51.826;5.850;2023-04-24T07:03:21;6.73;;;2.43;;
67053;SDS011;53960;51.826;5.850;2023-04-24T07:05:47;4.90;;;1.40;;
67053;SDS011;53960;51.826;5.850;2023-04-24T07:08:14;6.87;;;1.63;;
67053;SDS011;53960;51.826;5.850;2023-04-24T07:10:42;5.85;;;1.30;;
67053;SDS011;53960;51.826;5.850;2023-04-24T07:13:07;4.88;;;1.17;;
67053;SDS011;53960;51.826;5.850;2023-04-24T07:15:33;4.33;;;1.03;;
67053;SDS011;53960;51.826;5.850;2023-04-24T07:17:59;2.92;;;0.85;;
67053;SDS011;53960;51.826;5.850;2023-04-24T07:20:24;4.60;;;0.90;;
67053;SDS011;53960;51.826;5.850;2023-04-24T07:22:50;3.77;;;1.00;;
67053;SDS011;53960;51.826;5.850;2023-04-24T07:25:16;3.35;;;0.70;;
67053;SDS011;53960;51.826;5.850;2023-04-24T07:27:42;4.28;;;0.80;;
67053;SDS011;53960;51.826;5.850;2023-04-24T07:30:07;5.30;;;1.13;;
67053;SDS011;53960;51.826;5.850;2023-04-24T07:32:33;4.35;;;1.17;;
67053;SDS011;53960;51.826;5.850;2023-04-24T07:34:59;5.07;;;1.10;;
67053;SDS011;53960;51.826;5.850;2023-04-24T07:37:24;4.20;;;1.10;;
67053;SDS011;53960;51.826;5.850;2023-04-24T07:39:50;5.22;;;1.10;;
67053;SDS011;53960;51.826;5.850;2023-04-24T07:42:15;6.07;;;1.60;;
67053;SDS011;53960;51.826;5.850;2023-04-24T07:44:40;5.17;;;1.37;;
67053;SDS011;53960;51.826;5.850;2023-04-24T07:47:06;6.90;;;1.93;;
67053;SDS011;53960;51.826;5.850;2023-04-24T07:49:31;5.77;;;1.53;;
67053;SDS011;53960;51.826;5.850;2023-04-24T07:51:58;6.18;;;2.10;;
67053;SDS011;53960;51.826;5.850;2023-04-24T07:54:25;6.80;;;2.42;;
67053;SDS011;53960;51.826;5.850;2023-04-24T07:56:50;7.30;;;2.40;;
67053;SDS011;53960;51.826;5.850;2023-04-24T07:59:16;7.73;;;3.17;;
67053;SDS011;53960;51.826;5.850;2023-04-24T08:01:41;13.03;;;5.33;;
67053;SDS011;53960;51.826;5.850;2023-04-24T08:04:06;11.27;;;4.87;;
67053;SDS011;53960;51.826;5.850;2023-04-24T08:06:32;13.50;;;5.70;;
67053;SDS011;53960;51.826;5.850;2023-04-24T08:08:57;15.37;;;6.90;;
67053;SDS011;53960;51.826;5.850;2023-04-24T08:11:23;15.33;;;6.67;;
67053;SDS011;53960;51.826;5.850;2023-04-24T08:13:49;13.77;;;6.82;;
67053;SDS011;53960;51.826;5.850;2023-04-24T08:16:14;14.40;;;6.87;;
67053;SDS011;53960;51.826;5.850;2023-04-24T08:18:40;15.52;;;6.38;;
67053;SDS011;53960;51.826;5.850;2023-04-24T08:21:05;16.00;;;6.80;;
67053;SDS011;53960;51.826;5.850;2023-04-24T08:23:31;16.53;;;6.70;;
67053;SDS011;53960;51.826;5.850;2023-04-24T08:25:56;15.10;;;6.43;;
67053;SDS011;53960;51.826;5.850;2023-04-24T08:28:22;13.45;;;6.28;;
67053;SDS011;53960;51.826;5.850;2023-04-24T08:30:48;17.07;;;6.77;;
67053;SDS011;53960;51.826;5.850;2023-04-24T08:33:19;12.52;;;6.30;;
67053;SDS011;53960;51.826;5.850;2023-04-24T08:35:44;15.43;;;6.87;;
67053;SDS011;53960;51.826;5.850;2023-04-24T08:38:10;15.60;;;6.70;;
67053;SDS011;53960;51.826;5.850;2023-04-24T08:40:35;15.03;;;6.30;;
67053;SDS011;53960;51.826;5.850;2023-04-24T08:43:01;16.50;;;6.78;;
67053;SDS011;53960;51.826;5.850;2023-04-24T08:45:28;16.90;;;7.43;;
67053;SDS011;53960;51.826;5.850;2023-04-24T08:47:54;14.98;;;6.88;;
67053;SDS011;53960;51.826;5.850;2023-04-24T08:50:20;17.30;;;6.80;;
67053;SDS011;53960;51.826;5.850;2023-04-24T08:52:47;14.95;;;6.78;;
67053;SDS011;53960;51.826;5.850;2023-04-24T08:55:15;18.65;;;6.88;;
67053;SDS011;53960;51.826;5.850;2023-04-24T08:57:43;14.75;;;5.97;;
67053;SDS011;53960;51.826;5.850;2023-04-24T09:00:10;17.48;;;5.30;;
67053;SDS011;53960;51.826;5.850;2023-04-24T09:02:36;15.60;;;4.90;;
67053;SDS011;53960;51.826;5.850;2023-04-24T09:05:04;13.07;;;4.95;;
67053;SDS011;53960;51.826;5.850;2023-04-24T09:07:30;15.85;;;4.32;;
67053;SDS011;53960;51.826;5.850;2023-04-24T09:10:01;14.40;;;4.22;;
67053;SDS011;53960;51.826;5.850;2023-04-24T09:12:27;17.77;;;4.55;;
67053;SDS011;53960;51.826;5.850;2023-04-24T09:14:52;16.13;;;3.73;;
67053;SDS011;53960;51.826;5.850;2023-04-24T09:17:18;18.05;;;3.55;;
67053;SDS011;53960;51.826;5.850;2023-04-24T09:19:44;11.90;;;3.47;;
67053;SDS011;53960;51.826;5.850;2023-04-24T09:22:09;16.83;;;3.93;;
67053;SDS011;53960;51.826;5.850;2023-04-24T09:24:34;9.57;;;2.73;;
67053;SDS011;53960;51.826;5.850;2023-04-24T09:27:00;12.43;;;3.73;;
67053;SDS011;53960;51.826;5.850;2023-04-24T09:29:29;17.00;;;3.00;;
67053;SDS011;53960;51.826;5.850;2023-04-24T09:31:55;15.40;;;3.10;;
67053;SDS011;53960;51.826;5.850;2023-04-24T09:34:24;13.83;;;2.67;;
67053;SDS011;53960;51.826;5.850;2023-04-24T09:36:50;11.63;;;2.40;;
67053;SDS011;53960;51.826;5.850;2023-04-24T09:39:16;14.23;;;3.05;;
67053;SDS011;53960;51.826;5.850;2023-04-24T09:41:43;14.20;;;2.50;;
67053;SDS011;53960;51.826;5.850;2023-04-24T09:44:13;12.30;;;2.47;;
67053;SDS011;53960;51.826;5.850;2023-04-24T09:46:49;15.00;;;2.63;;
67053;SDS011;53960;51.826;5.850;2023-04-24T09:49:24;11.68;;;2.80;;
67053;SDS011;53960;51.826;5.850;2023-04-24T09:52:03;10.05;;;2.50;;
67053;SDS011;53960;51.826;5.850;2023-04-24T09:54:35;16.07;;;2.80;;
67053;SDS011;53960;51.826;5.850;2023-04-24T09:57:04;13.55;;;2.78;;
67053;SDS011;53960;51.826;5.850;2023-04-24T09:59:30;8.80;;;2.35;;
67053;SDS011;53960;51.826;5.850;2023-04-24T10:01:55;11.90;;;3.10;;
67053;SDS011;53960;51.826;5.850;2023-04-24T10:04:22;10.60;;;2.55;;
67053;SDS011;53960;51.826;5.850;2023-04-24T10:06:49;11.27;;;2.63;;
67053;SDS011;53960;51.826;5.850;2023-04-24T10:09:17;15.00;;;3.08;;
67053;SDS011;53960;51.826;5.850;2023-04-24T10:11:44;10.85;;;2.35;;
67053;SDS011;53960;51.826;5.850;2023-04-24T10:14:14;9.53;;;2.07;;
67053;SDS011;53960;51.826;5.850;2023-04-24T10:16:41;11.23;;;2.80;;
67053;SDS011;53960;51.826;5.850;2023-04-24T10:19:07;17.23;;;2.40;;
67053;SDS011;53960;51.826;5.850;2023-04-24T10:21:34;8.03;;;1.77;;
67053;SDS011;53960;51.826;5.850;2023-04-24T10:24:00;12.48;;;3.50;;
67053;SDS011;53960;51.826;5.850;2023-04-24T10:26:28;8.25;;;2.10;;
67053;SDS011;53960;51.826;5.850;2023-04-24T10:28:54;10.00;;;2.20;;
67053;SDS011;53960;51.826;5.850;2023-04-24T10:31:22;10.60;;;2.70;;
67053;SDS011;53960;51.826;5.850;2023-04-24T10:33:48;10.90;;;2.00;;
67053;SDS011;53960;51.826;5.850;2023-04-24T10:36:15;11.68;;;2.45;;
67053;SDS011;53960;51.826;5.850;2023-04-24T10:38:41;9.00;;;1.92;;
67053;SDS011;53960;51.826;5.850;2023-04-24T10:41:11;12.15;;;1.90;;
67053;SDS011;53960;51.826;5.850;2023-04-24T10:43:48;7.85;;;1.90;;
67053;SDS011;53960;51.826;5.850;2023-04-24T10:46:21;6.33;;;1.70;;
67053;SDS011;53960;51.826;5.850;2023-04-24T10:48:52;8.85;;;1.77;;
67053;SDS011;53960;51.826;5.850;2023-04-24T10:51:21;9.55;;;1.88;;
67053;SDS011;53960;51.826;5.850;2023-04-24T10:53:47;8.75;;;1.88;;
67053;SDS011;53960;51.826;5.850;2023-04-24T10:56:15;8.80;;;1.80;;
67053;SDS011;53960;51.826;5.850;2023-04-24T10:58:42;8.57;;;1.80;;
67053;SDS011;53960;51.826;5.850;2023-04-24T11:01:10;6.38;;;1.90;;
67053;SDS011;53960;51.826;5.850;2023-04-24T11:03:56;10.13;;;1.98;;
67053;SDS011;53960;51.826;5.850;2023-04-24T11:06:32;7.10;;;1.40;;
67053;SDS011;53960;51.826;5.850;2023-04-24T11:09:06;8.25;;;1.73;;
67053;SDS011;53960;51.826;5.850;2023-04-24T11:11:33;6.97;;;1.57;;
67053;SDS011;53960;51.826;5.850;2023-04-24T11:14:01;7.30;;;1.40;;
67053;SDS011;53960;51.826;5.850;2023-04-24T11:19:01;8.13;;;1.80;;
67053;SDS011;53960;51.826;5.850;2023-04-24T11:21:48;9.50;;;1.45;;
67053;SDS011;53960;51.826;5.850;2023-04-24T11:24:33;6.22;;;1.55;;
67053;SDS011;53960;51.826;5.850;2023-04-24T11:34:45;6.85;;;1.40;;
67053;SDS011;53960;51.826;5.850;2023-04-24T11:37:12;7.18;;;1.25;;
67053;SDS011;53960;51.826;5.850;2023-04-24T11:39:38;8.20;;;1.15;;
67053;SDS011;53960;51.826;5.850;2023-04-24T11:42:03;6.23;;;0.90;;
67053;SDS011;53960;51.826;5.850;2023-04-24T11:44:31;8.13;;;1.30;;
67053;SDS011;53960;51.826;5.850;2023-04-24T11:46:58;13.30;;;1.60;;
67053;SDS011;53960;51.826;5.850;2023-04-24T11:49:23;4.87;;;0.93;;
67053;SDS011;53960;51.826;5.850;2023-04-24T11:51:49;10.52;;;1.40;;
67053;SDS011;53960;51.826;5.850;2023-04-24T11:54:14;6.50;;;1.30;;
67053;SDS011;53960;51.826;5.850;2023-04-24T11:56:44;5.63;;;1.27;;
67053;SDS011;53960;51.826;5.850;2023-04-24T11:59:11;8.82;;;1.50;;
67053;SDS011;53960;51.826;5.850;2023-04-24T12:01:45;8.57;;;1.30;;
67053;SDS011;53960;51.826;5.850;2023-04-24T12:04:11;8.07;;;1.20;;
67053;SDS011;53960;51.826;5.850;2023-04-24T12:06:37;7.25;;;1.00;;
67053;SDS011;53960;51.826;5.850;2023-04-24T12:09:02;7.57;;;1.63;;
67053;SDS011;53960;51.826;5.850;2023-04-24T12:11:27;6.73;;;1.00;;
67053;SDS011;53960;51.826;5.850;2023-04-24T12:13:54;5.83;;;1.03;;
67053;SDS011;53960;51.826;5.850;2023-04-24T12:16:20;4.40;;;1.10;;
67053;SDS011;53960;51.826;5.850;2023-04-24T12:18:45;9.98;;;1.20;;
67053;SDS011;53960;51.826;5.850;2023-04-24T12:21:14;5.20;;;0.80;;
67053;SDS011;53960;51.826;5.850;2023-04-24T12:23:42;4.68;;;1.17;;
67053;SDS011;53960;51.826;5.850;2023-04-24T12:26:09;4.60;;;1.00;;
67053;SDS011;53960;51.826;5.850;2023-04-24T12:28:35;5.40;;;1.20;;
67053;SDS011;53960;51.826;5.850;2023-04-24T12:31:01;5.80;;;1.50;;
67053;SDS011;53960;51.826;5.850;2023-04-24T12:33:27;7.67;;;1.10;;
67053;SDS011;53960;51.826;5.850;2023-04-24T12:35:52;7.43;;;1.30;;
67053;SDS011;53960;51.826;5.850;2023-04-24T12:38:22;5.30;;;0.90;;
67053;SDS011;53960;51.826;5.850;2023-04-24T12:41:00;7.65;;;1.15;;
67053;SDS011;53960;51.826;5.850;2023-04-24T12:43:27;6.85;;;1.45;;
67053;SDS011;53960;51.826;5.850;2023-04-24T12:45:52;9.20;;;1.97;;
67053;SDS011;53960;51.826;5.850;2023-04-24T12:48:17;7.07;;;1.43;;
67053;SDS011;53960;51.826;5.850;2023-04-24T12:50:43;6.33;;;1.30;;
67053;SDS011;53960;51.826;5.850;2023-04-24T12:53:09;6.35;;;1.38;;
67053;SDS011;53960;51.826;5.850;2023-04-24T12:55:35;7.27;;;1.60;;
67053;SDS011;53960;51.826;5.850;2023-04-24T12:58:00;6.78;;;1.23;;
67053;SDS011;53960;51.826;5.850;2023-04-24T13:00:26;5.85;;;1.15;;
67053;SDS011;53960;51.826;5.850;2023-04-24T13:02:52;6.17;;;1.07;;
67053;SDS011;53960;51.826;5.850;2023-04-24T13:05:17;7.00;;;1.30;;
67053;SDS011;53960;51.826;5.850;2023-04-24T13:07:42;4.80;;;1.00;;
67053;SDS011;53960;51.826;5.850;2023-04-24T13:10:08;6.07;;;1.10;;
67053;SDS011;53960;51.826;5.850;2023-04-24T13:12:34;5.72;;;1.27;;
67053;SDS011;53960;51.826;5.850;2023-04-24T13:15:00;6.13;;;0.90;;
67053;SDS011;53960;51.826;5.850;2023-04-24T13:17:25;4.70;;;1.10;;
67053;SDS011;53960;51.826;5.850;2023-04-24T13:19:51;8.03;;;1.20;;
67053;SDS011;53960;51.826;5.850;2023-04-24T13:22:17;7.97;;;1.23;;
67053;SDS011;53960;51.826;5.850;2023-04-24T13:24:46;8.07;;;1.10;;
67053;SDS011;53960;51.826;5.850;2023-04-24T13:27:13;6.93;;;1.20;;
67053;SDS011;53960;51.826;5.850;2023-04-24T13:29:39;6.40;;;1.30;;
67053;SDS011;53960;51.826;5.850;2023-04-24T13:32:05;6.40;;;1.10;;
67053;SDS011;53960;51.826;5.850;2023-04-24T13:34:30;8.82;;;1.63;;
67053;SDS011;53960;51.826;5.850;2023-04-24T13:36:56;7.57;;;1.10;;
67053;SDS011;53960;51.826;5.850;2023-04-24T13:39:23;8.82;;;1.60;;
67053;SDS011;53960;51.826;5.850;2023-04-24T13:41:49;6.47;;;1.85;;
67053;SDS011;53960;51.826;5.850;2023-04-24T13:44:15;8.70;;;1.43;;
67053;SDS011;53960;51.826;5.850;2023-04-24T13:46:42;7.38;;;1.85;;
67053;SDS011;53960;51.826;5.850;2023-04-24T13:49:09;9.37;;;1.97;;
67053;SDS011;53960;51.826;5.850;2023-04-24T13:51:34;6.78;;;1.50;;
67053;SDS011;53960;51.826;5.850;2023-04-24T13:54:00;7.60;;;1.33;;
67053;SDS011;53960;51.826;5.850;2023-04-24T13:56:25;7.77;;;1.30;;
67053;SDS011;53960;51.826;5.850;2023-04-24T13:58:51;7.10;;;1.53;;
67053;SDS011;53960;51.826;5.850;2023-04-24T14:01:16;9.87;;;1.60;;
67053;SDS011;53960;51.826;5.850;2023-04-24T14:03:42;9.35;;;1.70;;
67053;SDS011;53960;51.826;5.850;2023-04-24T14:06:10;12.65;;;2.25;;
67053;SDS011;53960;51.826;5.850;2023-04-24T14:08:35;8.70;;;1.97;;
67053;SDS011;53960;51.826;5.850;2023-04-24T14:11:00;9.73;;;2.00;;
67053;SDS011;53960;51.826;5.850;2023-04-24T14:13:26;7.70;;;1.70;;
67053;SDS011;53960;51.826;5.850;2023-04-24T14:15:52;7.75;;;1.60;;
67053;SDS011;53960;51.826;5.850;2023-04-24T14:18:18;10.20;;;1.80;;
67053;SDS011;53960;51.826;5.850;2023-04-24T14:20:43;8.83;;;1.93;;
67053;SDS011;53960;51.826;5.850;2023-04-24T14:23:09;9.77;;;2.03;;
67053;SDS011;53960;51.826;5.850;2023-04-24T14:25:34;8.43;;;1.40;;
67053;SDS011;53960;51.826;5.850;2023-04-24T14:28:00;8.73;;;1.77;;
67053;SDS011;53960;51.826;5.850;2023-04-24T14:30:25;8.03;;;2.00;;
67053;SDS011;53960;51.826;5.850;2023-04-24T14:32:50;11.47;;;2.30;;
67053;SDS011;53960;51.826;5.850;2023-04-24T14:35:16;11.93;;;2.03;;
67053;SDS011;53960;51.826;5.850;2023-04-24T14:37:41;12.07;;;1.93;;
67053;SDS011;53960;51.826;5.850;2023-04-24T14:40:07;13.68;;;2.40;;